createdAt,value
2022-09-27T00:00:45.519Z,15.49
2022-09-27T00:03:13.161Z,15.45
2022-09-27T00:05:41.357Z,15.46
2022-09-27T00:08:08.015Z,15.50
2022-09-27T00:10:34.580Z,15.45
2022-09-27T00:13:01.168Z,15.52
2022-09-27T00:15:27.683Z,15.47
2022-09-27T00:17:54.367Z,15.62
2022-09-27T00:20:21.461Z,15.63
2022-09-27T00:22:48.981Z,15.64
2022-09-27T00:25:16.227Z,15.65
2022-09-27T00:27:42.968Z,15.62
2022-09-27T00:30:10.485Z,15.61
2022-09-27T00:32:37.077Z,15.59
2022-09-27T00:35:04.557Z,15.50
2022-09-27T00:37:31.343Z,15.63
2022-09-27T00:39:57.881Z,15.70
2022-09-27T00:42:24.486Z,15.67
2022-09-27T00:45:03.894Z,15.64
2022-09-27T00:47:36.082Z,15.60
2022-09-27T00:50:40.639Z,15.51
2022-09-27T00:53:15.822Z,15.49
2022-09-27T00:55:53.036Z,15.46
2022-09-27T00:58:24.741Z,15.57
2022-09-27T01:00:57.674Z,15.55
2022-09-27T01:04:16.672Z,15.57
2022-09-27T01:06:43.239Z,15.52
2022-09-27T01:09:12.108Z,15.49
2022-09-27T01:11:41.599Z,15.52
2022-09-27T01:14:29.122Z,15.57
2022-09-27T01:17:19.002Z,15.61
2022-09-27T01:19:54.551Z,15.61
2022-09-27T01:22:42.245Z,15.53
2022-09-27T01:25:37.869Z,15.48
2022-09-27T01:28:24.516Z,15.33
2022-09-27T01:31:11.001Z,15.28
2022-09-27T01:33:49.290Z,15.24
2022-09-27T01:36:42.744Z,15.16
2022-09-27T01:39:27.235Z,15.18
2022-09-27T01:42:01.482Z,15.18
2022-09-27T01:44:31.250Z,15.31
2022-09-27T01:47:08.837Z,15.38
2022-09-27T01:50:00.446Z,15.37
2022-09-27T01:52:37.429Z,15.46
2022-09-27T01:55:08.505Z,15.47
2022-09-27T01:57:43.667Z,15.46
2022-09-27T02:00:17.664Z,15.45
2022-09-27T02:02:49.471Z,15.50
2022-09-27T02:05:18.257Z,15.38
2022-09-27T02:07:48.861Z,15.47
2022-09-27T02:10:24.627Z,15.39
2022-09-27T02:13:15.820Z,15.32
2022-09-27T02:16:09.810Z,15.43
2022-09-27T02:18:54.864Z,15.42
2022-09-27T02:21:25.697Z,15.42
2022-09-27T02:23:57.435Z,15.44
2022-09-27T02:26:31.480Z,15.52
2022-09-27T02:29:05.643Z,15.55
2022-09-27T02:31:32.379Z,15.51
2022-09-27T02:34:19.924Z,15.50
2022-09-27T02:36:47.664Z,15.41
2022-09-27T02:39:15.202Z,15.54
2022-09-27T02:41:41.787Z,15.50
2022-09-27T02:44:13.204Z,15.56
2022-09-27T02:47:18.590Z,15.56
2022-09-27T02:50:09.799Z,15.54
2022-09-27T02:52:39.076Z,15.50
2022-09-27T02:55:30.421Z,15.40
2022-09-27T02:57:56.929Z,15.40
2022-09-27T03:00:37.366Z,15.29
2022-09-27T03:03:13.306Z,15.28
2022-09-27T03:06:05.207Z,15.30
2022-09-27T03:08:31.934Z,15.30
2022-09-27T03:10:58.551Z,15.44
2022-09-27T03:13:25.728Z,15.48
2022-09-27T03:15:52.315Z,15.48
2022-09-27T03:18:19.019Z,15.49
2022-09-27T03:20:45.544Z,15.54
2022-09-27T03:23:12.535Z,15.54
2022-09-27T03:25:39.321Z,15.46
2022-09-27T03:28:06.615Z,15.34
2022-09-27T03:30:33.281Z,15.42
2022-09-27T03:32:59.881Z,15.29
2022-09-27T03:35:26.387Z,15.19
2022-09-27T03:37:53.050Z,15.10
2022-09-27T03:40:19.819Z,15.19
2022-09-27T03:42:49.800Z,15.17
2022-09-27T03:45:17.429Z,15.23
2022-09-27T03:47:44.103Z,15.18
2022-09-27T03:50:11.768Z,15.17
2022-09-27T03:52:38.954Z,15.13
2022-09-27T03:55:06.452Z,15.20
2022-09-27T03:57:33.264Z,15.09
2022-09-27T03:59:59.940Z,15.04
2022-09-27T04:02:27.891Z,14.99
2022-09-27T04:04:54.445Z,14.99
2022-09-27T04:07:20.999Z,14.93
2022-09-27T04:09:47.570Z,14.95
2022-09-27T04:12:14.135Z,14.98
2022-09-27T04:14:40.689Z,14.97
2022-09-27T04:17:07.732Z,14.91
2022-09-27T04:19:34.532Z,14.88
2022-09-27T04:22:01.653Z,14.85
2022-09-27T04:24:28.210Z,14.82
2022-09-27T04:26:54.713Z,14.83
2022-09-27T04:29:22.022Z,14.78
2022-09-27T04:31:48.642Z,14.80
2022-09-27T04:34:16.211Z,14.92
2022-09-27T04:36:42.860Z,15.01
2022-09-27T04:39:10.232Z,15.07
2022-09-27T04:41:36.861Z,15.09
2022-09-27T04:44:03.889Z,15.11
2022-09-27T04:46:34.712Z,15.12
2022-09-27T04:49:02.226Z,15.13
2022-09-27T04:51:28.898Z,15.14
2022-09-27T04:53:58.631Z,15.11
2022-09-27T04:56:25.710Z,15.11
2022-09-27T04:58:52.235Z,15.12
2022-09-27T05:01:18.777Z,15.04
2022-09-27T05:03:45.391Z,15.02
2022-09-27T05:06:12.049Z,15.05
2022-09-27T05:08:38.615Z,15.00
2022-09-27T05:11:05.501Z,14.95
2022-09-27T05:13:32.225Z,15.07
2022-09-27T05:16:03.847Z,15.08
2022-09-27T05:18:30.477Z,15.09
2022-09-27T05:20:58.983Z,15.18
2022-09-27T05:23:26.809Z,15.21
2022-09-27T05:25:55.774Z,15.16
2022-09-27T05:28:24.263Z,15.24
2022-09-27T05:30:51.084Z,15.22
2022-09-27T05:33:19.143Z,15.23
2022-09-27T05:35:52.124Z,15.28
2022-09-27T05:38:19.565Z,15.28
2022-09-27T05:40:48.627Z,15.24
2022-09-27T05:43:16.114Z,15.31
2022-09-27T05:45:44.118Z,15.25
2022-09-27T05:48:12.561Z,15.30
2022-09-27T05:50:39.264Z,15.38
2022-09-27T05:53:06.357Z,15.39
2022-09-27T05:55:33.083Z,15.34
2022-09-27T05:58:02.041Z,15.34
2022-09-27T06:00:29.545Z,15.39
2022-09-27T06:03:03.077Z,15.42
2022-09-27T06:05:35.397Z,15.42
2022-09-27T06:08:05.193Z,15.44
2022-09-27T06:10:32.402Z,15.38
2022-09-27T06:13:06.391Z,15.48
2022-09-27T06:15:34.274Z,15.56
2022-09-27T06:18:10.423Z,15.63
2022-09-27T06:20:38.063Z,15.76
2022-09-27T06:23:05.845Z,15.94
2022-09-27T06:25:32.500Z,15.93
2022-09-27T06:27:59.132Z,15.95
2022-09-27T06:30:27.164Z,16.26
2022-09-27T06:33:01.384Z,16.64
2022-09-27T06:35:29.607Z,16.90
2022-09-27T06:37:56.212Z,17.15
2022-09-27T06:40:26.493Z,17.19
2022-09-27T06:42:53.708Z,17.04
2022-09-27T06:45:20.466Z,16.92
2022-09-27T06:47:47.281Z,16.81
2022-09-27T06:50:14.445Z,16.71
2022-09-27T06:52:49.981Z,16.61
2022-09-27T06:55:17.142Z,16.53
2022-09-27T06:58:02.509Z,16.55
2022-09-27T07:00:29.312Z,16.54
2022-09-27T07:03:00.949Z,16.70
2022-09-27T07:05:31.492Z,16.71
2022-09-27T07:07:58.876Z,16.81
2022-09-27T07:10:28.042Z,17.10
2022-09-27T07:12:55.691Z,17.33
2022-09-27T07:15:23.449Z,18.73
2022-09-27T07:18:00.126Z,19.17
2022-09-27T07:20:27.414Z,18.79
2022-09-27T07:22:54.160Z,18.67
2022-09-27T07:25:20.986Z,19.42
2022-09-27T07:27:47.938Z,19.52
2022-09-27T07:30:16.391Z,19.76
2022-09-27T07:32:43.883Z,21.01
2022-09-27T07:35:12.469Z,21.95
2022-09-27T07:37:39.202Z,22.52
2022-09-27T07:40:09.412Z,22.92
2022-09-27T07:42:41.698Z,23.58
2022-09-27T07:45:09.592Z,23.90
2022-09-27T07:47:37.796Z,23.86
2022-09-27T07:50:05.895Z,23.52
2022-09-27T07:52:42.873Z,23.88
2022-09-27T07:55:11.087Z,23.89
2022-09-27T07:57:38.042Z,24.57
2022-09-27T08:00:11.164Z,24.76
2022-09-27T08:02:37.934Z,25.48
2022-09-27T08:05:04.931Z,26.23
2022-09-27T08:07:32.912Z,26.02
2022-09-27T08:09:59.463Z,26.75
2022-09-27T08:12:26.238Z,26.78
2022-09-27T08:14:53.111Z,27.10
2022-09-27T08:17:19.785Z,27.52
2022-09-27T08:19:48.304Z,27.64
2022-09-27T08:22:15.099Z,27.66
2022-09-27T08:24:42.090Z,27.55
2022-09-27T08:27:11.705Z,27.81
2022-09-27T08:29:41.877Z,27.49
2022-09-27T08:32:10.027Z,27.99
2022-09-27T08:34:38.317Z,28.16
2022-09-27T08:37:05.242Z,27.93
2022-09-27T08:39:31.961Z,28.33
2022-09-27T08:42:07.747Z,28.66
2022-09-27T08:45:03.402Z,28.78
2022-09-27T08:47:39.177Z,29.31
2022-09-27T08:50:42.095Z,29.16
2022-09-27T08:53:14.779Z,29.13
2022-09-27T08:56:02.519Z,29.12
2022-09-27T08:58:32.444Z,28.90
2022-09-27T09:01:16.610Z,28.82
2022-09-27T09:03:50.432Z,28.99
2022-09-27T09:06:41.208Z,29.03
2022-09-27T09:09:27.699Z,29.02
2022-09-27T09:12:41.011Z,29.27
2022-09-27T09:15:54.219Z,29.67
2022-09-27T09:18:26.513Z,29.43
2022-09-27T09:20:59.129Z,29.11
2022-09-27T09:23:50.696Z,29.12
2022-09-27T09:26:38.783Z,29.11
2022-09-27T09:29:38.698Z,29.57
2022-09-27T09:32:47.232Z,28.86
2022-09-27T09:35:34.197Z,28.84
2022-09-27T09:38:06.240Z,28.69
2022-09-27T09:40:45.989Z,28.37
2022-09-27T09:43:12.516Z,29.21
2022-09-27T09:45:45.334Z,29.29
2022-09-27T09:48:25.817Z,29.50
2022-09-27T09:50:56.539Z,29.02
2022-09-27T09:53:48.149Z,28.25
2022-09-27T09:56:24.951Z,28.74
2022-09-27T09:58:54.543Z,28.74
2022-09-27T10:01:33.642Z,29.06
2022-09-27T10:04:00.323Z,28.71
2022-09-27T10:06:29.399Z,28.81
2022-09-27T10:08:56.882Z,28.51
2022-09-27T10:11:31.077Z,29.29
2022-09-27T10:13:57.722Z,29.08
2022-09-27T10:16:27.164Z,28.97
2022-09-27T10:19:00.208Z,29.01
2022-09-27T10:21:30.121Z,29.35
2022-09-27T10:24:18.216Z,29.63
2022-09-27T10:26:48.764Z,29.01
2022-09-27T10:29:36.341Z,28.76
2022-09-27T10:32:12.014Z,28.19
2022-09-27T10:34:41.875Z,27.31
2022-09-27T10:37:21.853Z,26.87
2022-09-27T10:39:51.714Z,27.28
2022-09-27T10:42:38.689Z,27.08
2022-09-27T10:45:29.397Z,27.28
2022-09-27T10:47:57.802Z,27.03
2022-09-27T10:50:49.537Z,26.81
2022-09-27T10:53:20.822Z,26.50
2022-09-27T10:55:50.199Z,26.20
2022-09-27T10:58:32.569Z,25.93
2022-09-27T11:01:06.999Z,26.14
2022-09-27T11:03:38.194Z,26.16
2022-09-27T11:06:23.041Z,26.52
2022-09-27T11:08:54.648Z,26.16
2022-09-27T11:11:25.536Z,26.01
2022-09-27T11:14:08.107Z,25.90
2022-09-27T11:17:08.525Z,25.42
2022-09-27T11:19:48.466Z,25.29
2022-09-27T11:23:03.096Z,25.09
2022-09-27T11:34:39.451Z,25.24
2022-09-27T11:37:38.414Z,25.53
2022-09-27T11:40:08.047Z,25.42
2022-09-27T11:42:54.151Z,25.53
2022-09-27T11:45:50.315Z,25.83
2022-09-27T11:48:55.440Z,26.03
2022-09-27T11:51:29.888Z,25.89
2022-09-27T11:54:18.368Z,25.98
2022-09-27T11:57:18.937Z,25.86
2022-09-27T12:00:21.564Z,25.58
2022-09-27T12:03:18.747Z,25.51
2022-09-27T12:05:57.735Z,25.80
2022-09-27T12:08:33.973Z,25.83
2022-09-27T12:11:16.404Z,26.02
2022-09-27T12:13:51.665Z,25.95
2022-09-27T12:16:20.184Z,26.10
2022-09-27T12:18:51.464Z,25.63
2022-09-27T12:21:20.095Z,25.80
2022-09-27T12:23:49.082Z,26.09
2022-09-27T12:26:20.705Z,26.20
2022-09-27T12:28:52.739Z,26.25
2022-09-27T12:31:41.740Z,26.17
2022-09-27T12:34:20.517Z,26.16
2022-09-27T12:37:13.117Z,26.18
2022-09-27T12:39:49.017Z,25.88
2022-09-27T12:42:25.916Z,26.04
2022-09-27T12:44:52.991Z,26.02
2022-09-27T12:47:45.838Z,26.05
2022-09-27T12:50:39.399Z,26.12
2022-09-27T12:53:23.024Z,26.17
2022-09-27T12:56:11.795Z,25.84
2022-09-27T12:58:45.538Z,25.63
2022-09-27T13:01:20.588Z,25.57
2022-09-27T13:03:53.034Z,25.72
2022-09-27T13:06:32.455Z,25.59
2022-09-27T13:09:11.259Z,25.53
2022-09-27T13:12:14.452Z,25.30
2022-09-27T13:14:57.305Z,25.26
2022-09-27T13:17:34.100Z,25.26
2022-09-27T13:20:35.513Z,25.29
2022-09-27T13:23:20.490Z,25.23
2022-09-27T13:26:24.150Z,25.41
2022-09-27T13:28:50.968Z,25.45
2022-09-27T13:31:52.337Z,25.50
2022-09-27T13:34:51.894Z,25.57
2022-09-27T13:37:46.299Z,25.50
2022-09-27T13:40:15.916Z,25.54
2022-09-27T13:43:10.390Z,25.64
2022-09-27T13:45:43.018Z,25.57
2022-09-27T13:48:16.885Z,25.46
2022-09-27T13:50:55.217Z,25.39
2022-09-27T13:53:40.329Z,24.91
2022-09-27T13:56:47.226Z,25.13
2022-09-27T13:59:33.016Z,24.98
2022-09-27T14:02:15.984Z,25.02
2022-09-27T14:04:56.216Z,25.06
2022-09-27T14:07:29.206Z,24.99
2022-09-27T14:10:01.546Z,25.01
2022-09-27T14:12:33.728Z,25.02
2022-09-27T14:15:02.931Z,24.97
2022-09-27T14:17:31.495Z,25.09
2022-09-27T14:19:58.035Z,25.05
2022-09-27T14:22:25.518Z,25.00
2022-09-27T14:24:55.280Z,24.79
2022-09-27T14:27:30.245Z,24.92
2022-09-27T14:30:10.281Z,24.91
2022-09-27T14:32:48.124Z,24.98
2022-09-27T14:35:38.870Z,25.06
2022-09-27T14:38:33.012Z,25.07
2022-09-27T14:41:01.613Z,24.98
2022-09-27T14:43:29.953Z,24.94
2022-09-27T14:46:05.950Z,24.89
2022-09-27T14:48:38.829Z,24.81
2022-09-27T14:51:30.630Z,24.64
2022-09-27T14:54:16.432Z,24.49
2022-09-27T14:56:43.044Z,24.48
2022-09-27T14:59:17.385Z,24.40
2022-09-27T15:01:51.753Z,24.37
2022-09-27T15:04:20.443Z,24.37
2022-09-27T15:06:48.129Z,24.34
2022-09-27T15:09:17.182Z,24.40
2022-09-27T15:11:49.489Z,24.32
2022-09-27T15:14:20.013Z,24.26
2022-09-27T15:16:48.577Z,24.14
2022-09-27T15:19:24.868Z,23.91
2022-09-27T15:21:51.560Z,23.73
2022-09-27T15:24:41.392Z,23.52
2022-09-27T15:27:18.180Z,23.38
2022-09-27T15:29:53.415Z,23.30
2022-09-27T15:32:28.556Z,23.31
2022-09-27T15:34:56.643Z,23.35
2022-09-27T15:37:36.535Z,23.32
2022-09-27T15:40:47.319Z,23.29
2022-09-27T15:43:22.732Z,23.26
2022-09-27T15:45:51.812Z,23.23
2022-09-27T15:48:20.916Z,23.21
2022-09-27T15:50:49.619Z,23.17
2022-09-27T15:53:36.893Z,23.11
2022-09-27T15:56:06.854Z,23.00
2022-09-27T15:58:37.471Z,23.04
2022-09-27T16:01:06.498Z,23.01
2022-09-27T16:03:34.505Z,23.01
2022-09-27T16:06:03.297Z,22.96
2022-09-27T16:08:30.983Z,22.95
2022-09-27T16:10:59.670Z,22.94
2022-09-27T16:13:31.838Z,22.92
2022-09-27T16:16:00.125Z,22.89
2022-09-27T16:18:30.278Z,22.76
2022-09-27T16:20:59.045Z,22.68
2022-09-27T16:23:25.580Z,22.57
2022-09-27T16:25:55.304Z,22.44
2022-09-27T16:28:22.220Z,22.32
2022-09-27T16:30:48.829Z,22.23
2022-09-27T16:33:15.569Z,22.10
2022-09-27T16:35:42.218Z,22.11
2022-09-27T16:38:09.220Z,21.97
2022-09-27T16:40:37.300Z,21.91
2022-09-27T16:43:07.561Z,21.82
2022-09-27T16:45:36.495Z,21.77
2022-09-27T16:48:03.936Z,21.65
2022-09-27T16:50:49.116Z,21.58
2022-09-27T16:53:16.006Z,21.49
2022-09-27T16:55:42.561Z,21.32
2022-09-27T16:58:09.157Z,21.28
2022-09-27T17:00:35.956Z,21.23
2022-09-27T17:03:02.629Z,21.14
2022-09-27T17:05:29.342Z,21.04
2022-09-27T17:07:56.108Z,20.92
2022-09-27T17:10:23.789Z,20.83
2022-09-27T17:12:51.158Z,20.64
2022-09-27T17:15:18.102Z,20.55
2022-09-27T17:17:48.196Z,20.42
2022-09-27T17:20:14.905Z,20.32
2022-09-27T17:22:43.652Z,20.16
2022-09-27T17:25:10.142Z,20.11
2022-09-27T17:27:36.754Z,20.06
2022-09-27T17:30:04.367Z,19.95
2022-09-27T17:32:31.483Z,19.92
2022-09-27T17:34:58.906Z,19.88
2022-09-27T17:37:25.403Z,19.86
2022-09-27T17:39:53.232Z,19.82
2022-09-27T17:42:19.757Z,19.69
2022-09-27T17:44:46.680Z,19.55
2022-09-27T17:47:31.593Z,19.34
2022-09-27T17:50:16.656Z,18.96
2022-09-27T17:52:43.813Z,18.74
2022-09-27T17:55:10.844Z,18.46
2022-09-27T17:57:37.712Z,18.24
2022-09-27T18:00:06.510Z,18.06
2022-09-27T18:02:33.144Z,17.99
2022-09-27T18:05:00.140Z,17.96
2022-09-27T18:07:28.067Z,17.96
2022-09-27T18:09:58.540Z,18.04
2022-09-27T18:12:35.627Z,18.10
2022-09-27T18:15:06.396Z,18.13
2022-09-27T18:17:36.320Z,18.10
2022-09-27T18:20:14.996Z,17.88
2022-09-27T18:22:43.565Z,17.70
2022-09-27T18:25:11.907Z,17.61
2022-09-27T18:27:42.463Z,17.50
2022-09-27T18:30:09.789Z,17.60
2022-09-27T18:32:37.224Z,17.71
2022-09-27T18:35:05.972Z,17.72
2022-09-27T18:37:32.385Z,17.79
2022-09-27T18:40:00.872Z,17.77
2022-09-27T18:42:30.094Z,17.75
2022-09-27T18:44:57.845Z,17.80
2022-09-27T18:47:24.956Z,17.85
2022-09-27T18:49:56.926Z,17.89
2022-09-27T18:52:23.567Z,17.96
2022-09-27T18:54:53.196Z,17.91
2022-09-27T18:57:19.779Z,17.96
2022-09-27T18:59:50.519Z,17.88
2022-09-27T19:02:19.708Z,17.72
2022-09-27T19:04:47.535Z,17.63
2022-09-27T19:07:16.232Z,17.48
2022-09-27T19:09:43.212Z,17.43
2022-09-27T19:12:10.743Z,17.36
2022-09-27T19:14:38.517Z,17.43
2022-09-27T19:17:05.143Z,17.42
2022-09-27T19:19:32.836Z,17.41
2022-09-27T19:22:02.204Z,17.40
2022-09-27T19:24:31.940Z,17.44
2022-09-27T19:26:59.858Z,17.41
2022-09-27T19:29:27.618Z,17.43
2022-09-27T19:31:54.991Z,17.40
2022-09-27T19:34:25.706Z,17.34
2022-09-27T19:36:55.344Z,17.31
2022-09-27T19:39:27.732Z,17.29
2022-09-27T19:41:56.527Z,17.23
2022-09-27T19:44:25.862Z,17.18
2022-09-27T19:46:53.773Z,17.25
2022-09-27T19:49:21.043Z,17.30
2022-09-27T19:54:36.575Z,17.25
2022-09-27T19:57:03.804Z,17.25
2022-09-27T19:59:31.297Z,17.23
2022-09-27T20:02:00.227Z,17.22
2022-09-27T20:04:29.036Z,17.18
2022-09-27T20:06:59.136Z,17.16
2022-09-27T20:09:26.449Z,17.05
2022-09-27T20:11:53.605Z,17.07
2022-09-27T20:14:24.928Z,16.94
2022-09-27T20:16:52.090Z,17.06
2022-09-27T20:19:19.692Z,17.07
2022-09-27T20:21:48.709Z,17.06
2022-09-27T20:24:18.459Z,17.04
2022-09-27T20:26:48.223Z,16.98
2022-09-27T20:29:15.436Z,16.92
2022-09-27T20:32:09.133Z,16.92
2022-09-27T20:34:32.357Z,16.90
2022-09-27T20:37:01.098Z,16.92
2022-09-27T20:39:27.555Z,16.99
2022-09-27T20:41:58.975Z,16.91
2022-09-27T20:44:27.948Z,16.92
2022-09-27T20:46:54.538Z,16.93
2022-09-27T20:49:21.083Z,16.87
2022-09-27T20:51:48.781Z,16.75
2022-09-27T20:54:16.826Z,16.69
2022-09-27T20:56:46.896Z,16.67
2022-09-27T20:59:22.464Z,16.67
2022-09-27T21:01:51.124Z,16.71
2022-09-27T21:04:19.533Z,16.79
2022-09-27T21:06:46.206Z,16.83
2022-09-27T21:09:20.058Z,16.85
2022-09-27T21:11:48.421Z,16.88
2022-09-27T21:14:15.107Z,16.89
2022-09-27T21:16:42.145Z,16.85
2022-09-27T21:19:10.214Z,16.87
2022-09-27T21:21:36.999Z,16.77
2022-09-27T21:24:03.914Z,16.75
2022-09-27T21:26:33.294Z,16.74
2022-09-27T21:29:02.536Z,16.73
2022-09-27T21:31:35.888Z,16.69
2022-09-27T21:34:04.132Z,16.73
2022-09-27T21:36:33.423Z,16.59
2022-09-27T21:39:00.801Z,16.72
2022-09-27T21:41:28.240Z,16.75
2022-09-27T21:43:55.541Z,16.70
2022-09-27T21:46:24.671Z,16.69
2022-09-27T21:48:57.159Z,16.63
2022-09-27T21:51:28.247Z,16.45
2022-09-27T21:53:57.492Z,16.45
2022-09-27T21:56:26.477Z,16.41
2022-09-27T21:58:53.010Z,16.44
2022-09-27T22:01:21.842Z,16.45
2022-09-27T22:03:49.742Z,16.38
2022-09-27T22:06:19.272Z,16.39
2022-09-27T22:08:47.453Z,16.35
2022-09-27T22:11:15.969Z,16.41
2022-09-27T22:13:42.741Z,16.41
2022-09-27T22:16:12.295Z,16.28
2022-09-27T22:18:39.463Z,16.19
2022-09-27T22:21:08.341Z,15.99
2022-09-27T22:23:35.289Z,15.82
2022-09-27T22:26:13.730Z,15.82
2022-09-27T22:28:40.697Z,15.68
2022-09-27T22:31:08.648Z,15.57
2022-09-27T22:33:36.939Z,15.39
2022-09-27T22:36:03.874Z,15.45
2022-09-27T22:38:31.469Z,15.42
2022-09-27T22:40:59.967Z,15.38
2022-09-27T22:43:29.415Z,15.38
2022-09-27T22:45:57.179Z,15.37
2022-09-27T22:48:24.021Z,15.38
2022-09-27T22:50:50.536Z,15.37
2022-09-27T22:53:17.247Z,15.27
2022-09-27T22:55:43.852Z,15.24
2022-09-27T22:58:10.480Z,15.16
2022-09-27T23:00:38.736Z,15.04
2022-09-27T23:03:05.527Z,14.97
2022-09-27T23:05:32.088Z,15.03
2022-09-27T23:07:58.815Z,14.95
2022-09-27T23:10:25.519Z,15.07
2022-09-27T23:12:55.231Z,15.11
2022-09-27T23:15:21.981Z,15.11
2022-09-27T23:17:51.824Z,15.13
2022-09-27T23:20:18.683Z,15.20
2022-09-27T23:22:45.639Z,15.23
2022-09-27T23:25:13.046Z,15.29
2022-09-27T23:27:42.552Z,15.29
2022-09-27T23:30:11.054Z,15.35
2022-09-27T23:32:37.706Z,15.27
2022-09-27T23:35:04.851Z,15.18
2022-09-27T23:37:31.586Z,15.24
2022-09-27T23:39:58.380Z,15.31
2022-09-27T23:42:27.038Z,15.32
2022-09-27T23:44:54.204Z,15.30
2022-09-27T23:47:20.752Z,15.36
2022-09-27T23:49:47.277Z,15.26
2022-09-27T23:52:14.090Z,15.36
2022-09-27T23:54:40.952Z,15.38
2022-09-27T23:57:07.759Z,15.41
2022-09-27T23:59:34.276Z,15.41
